Time;durP1;ratioP1;P1;durP2;ratioP2;P2;SDS_P1;SDS_P2;PMS_P1;PMS_P2;Temp;Humidity;BMP_temperature;BMP_pressure;BME280_temperature;BME280_humidity;BME280_pressure;Samples;Min_cycle;Max_cycle;Signal;HPM_P1;HPM_P2
2023/07/08 07:02:02;;;;;;;0.38;0.38;;;31.80;99.90;36.50;101414.00;;;;5051834;28;20975;-71
2023/07/08 07:04:33;;;;;;;6.32;1.45;;;32.70;99.90;34.60;101417.00;;;;5049546;28;20213;-71
2023/07/08 07:07:39;;;;;;;0.30;0.30;;;31.80;99.90;36.30;101402.00;;;;5058664;28;20192;-71
2023/07/08 07:10:10;;;;;;;0.52;0.38;;;31.90;99.90;33.40;101414.00;;;;5041386;28;20229;-71
2023/07/08 07:13:01;;;;;;;12.95;11.80;;;31.60;99.90;37.00;101399.00;;;;5049152;28;20185;-72
2023/07/08 07:15:47;;;;;;;0.15;0.15;;;32.30;99.90;37.60;101397.00;;;;5049310;28;20249;-73
2023/07/08 07:18:52;;;;;;;2.75;1.10;;;33.30;99.90;34.10;101405.00;;;;5049624;28;20652;-72
2023/07/08 07:21:36;;;;;;;0.40;0.40;;;33.00;99.90;38.30;101415.00;;;;5050938;28;20263;-73
2023/07/08 07:24:24;;;;;;;0.70;0.70;;;33.60;99.90;39.50;101398.00;;;;5031766;28;20205;-72
2023/07/08 07:26:58;;;;;;;0.10;0.10;;;34.40;99.90;40.10;101414.00;;;;5062570;28;20253;-73
2023/07/08 07:29:37;;;;;;;0.10;0.10;;;35.20;99.60;41.70;101422.00;;;;5057781;28;20189;-73
2023/07/08 07:32:29;;;;;;;0.25;0.25;;;36.50;98.30;39.90;101470.00;;;;5057110;28;20266;-72
2023/07/08 07:35:25;;;;;;;0.38;0.38;;;36.10;97.40;39.20;101480.00;;;;5055527;28;20187;-72
2023/07/08 07:38:14;;;;;;;0.20;0.20;;;35.60;97.10;36.60;101486.00;;;;5052184;28;20587;-73
2023/07/08 07:41:06;;;;;;;1.63;0.68;;;33.90;98.00;36.60;101490.00;;;;5059561;28;20671;-72
2023/07/08 07:43:59;;;;;;;0.65;0.20;;;33.60;98.40;38.40;101474.00;;;;5050384;28;20227;-72
2023/07/08 07:46:30;;;;;;;0.10;0.10;;;33.60;98.40;39.40;101478.00;;;;5057880;28;20183;-73
2023/07/08 07:49:16;;;;;;;1.65;1.55;;;34.60;98.40;40.00;101486.00;;;;5048480;28;20171;-72
2023/07/08 07:52:24;;;;;;;0.13;0.13;;;35.30;97.20;40.40;101482.00;;;;5040693;28;20190;-72
2023/07/08 07:55:02;;;;;;;0.05;0.05;;;35.80;96.40;40.80;101486.00;;;;5057876;28;20188;-73
2023/07/08 07:57:38;;;;;;;0.28;0.28;;;36.60;95.80;42.20;101463.00;;;;5051666;28;20188;-72
2023/07/08 08:00:15;;;;;;;0.80;0.75;;;37.00;95.70;42.50;101470.00;;;;5059199;28;20208;-72
2023/07/08 08:02:51;;;;;;;0.10;0.10;;;37.50;94.70;43.40;101465.00;;;;5055494;28;20555;-69
2023/07/08 08:05:39;;;;;;;0.20;0.20;;;38.60;93.60;37.70;101463.00;;;;5055168;28;20221;-72
2023/07/08 08:08:18;;;;;;;0.28;0.28;;;36.00;94.10;41.40;101486.00;;;;5060621;28;20211;-72
2023/07/08 08:10:54;;;;;;;0.13;0.13;;;36.90;94.20;42.00;101465.00;;;;5061503;28;20181;-72
2023/07/08 08:13:42;;;;;;;0.80;0.50;;;37.60;93.30;43.60;101479.00;;;;5027831;28;20185;-69
2023/07/08 08:16:17;;;;;;;0.40;0.40;;;38.60;92.40;40.20;101494.00;;;;5048605;28;20548;-70
2023/07/08 08:19:27;;;;;;;0.00;0.00;;;38.00;91.80;39.80;101491.00;;;;5027105;28;20189;-71
2023/07/08 08:22:18;;;;;;;0.40;0.40;;;35.80;92.40;40.30;101492.00;;;;5049651;28;20185;-71
2023/07/08 08:24:57;;;;;;;0.13;0.13;;;36.40;91.10;40.40;101488.00;;;;5020280;28;20267;-72
2023/07/08 08:27:45;;;;;;;0.00;0.00;;;36.60;90.10;42.30;101474.00;;;;5034901;28;20173;-72
2023/07/08 08:31:12;;;;;;;0.82;0.82;;;37.40;90.20;41.20;101471.00;;;;5038378;28;20270;-71
2023/07/08 08:34:26;;;;;;;0.47;0.47;;;37.10;89.80;42.70;101445.00;;;;5023047;28;20211;-72
2023/07/08 08:37:32;;;;;;;0.10;0.10;;;38.10;87.60;45.50;101445.00;;;;5034630;28;20186;-69
2023/07/08 08:40:01;;;;;;;5.55;0.98;;;39.90;83.90;39.60;101477.00;;;;5017376;28;20206;-69
2023/07/08 08:46:02;;;;;;;0.00;0.00;;;38.70;83.70;44.20;101460.00;;;;5027897;28;20277;-69
2023/07/08 08:48:57;;;;;;;0.00;0.00;;;39.50;82.30;46.70;101440.00;;;;5011345;28;20194;-70
2023/07/08 08:51:45;;;;;;;0.40;0.40;;;40.90;80.90;45.80;101418.00;;;;5039277;28;20193;-70
2023/07/08 08:54:13;;;;;;;1.17;1.08;;;41.50;78.10;42.80;101468.00;;;;5024144;28;20170;-69
2023/07/08 08:57:08;;;;;;;0.00;0.00;;;40.50;78.00;45.50;101465.00;;;;5034641;28;20667;-69
2023/07/08 08:59:58;;;;;;;0.00;0.00;;;40.80;76.70;44.50;101482.00;;;;5072409;28;20185;-69
2023/07/08 09:02:32;;;;;;;0.00;0.00;;;40.40;75.20;43.00;101501.00;;;;5027560;28;20766;-70
2023/07/08 09:05:21;;;;;;;1.10;1.10;;;39.40;75.60;42.50;101504.00;;;;5047576;28;20185;-69
2023/07/08 09:08:23;;;;;;;0.47;0.47;;;38.90;75.90;41.10;101505.00;;;;5040127;28;20198;-69
2023/07/08 09:11:18;;;;;;;0.00;0.00;;;38.00;76.50;40.70;101474.00;;;;5028352;28;20245;-71
2023/07/08 09:13:53;;;;;;;0.00;0.00;;;37.50;77.70;41.50;101496.00;;;;5037918;28;20182;-72
2023/07/08 09:16:43;;;;;;;0.10;0.10;;;37.30;78.30;39.60;101479.00;;;;5023487;28;20185;-71
2023/07/08 09:19:18;;;;;;;0.10;0.10;;;36.90;77.80;41.30;101504.00;;;;5037316;28;20167;-71
2023/07/08 09:22:16;;;;;;;0.45;0.45;;;37.10;76.70;42.50;101496.00;;;;5034676;28;20232;-71
2023/07/08 09:24:51;;;;;;;0.00;0.00;;;37.70;77.80;42.20;101495.00;;;;5025169;28;20196;-72
2023/07/08 09:27:48;;;;;;;0.00;0.00;;;38.20;77.80;39.90;101497.00;;;;5041750;28;20201;-71
2023/07/08 09:30:28;;;;;;;0.15;0.15;;;37.20;77.30;41.50;101493.00;;;;5033601;28;20198;-72
2023/07/08 09:33:17;;;;;;;0.08;0.08;;;37.50;76.40;41.70;101484.00;;;;5037413;28;20553;-72
2023/07/08 09:35:56;;;;;;;0.08;0.08;;;37.50;77.80;43.10;101491.00;;;;5039815;28;20186;-72
2023/07/08 09:38:58;;;;;;;0.08;0.08;;;38.30;75.30;41.50;101494.00;;;;5034370;28;20174;-72
2023/07/08 09:42:06;;;;;;;0.03;0.03;;;38.50;74.10;41.40;101506.00;;;;5042564;28;20550;-72
2023/07/08 09:44:41;;;;;;;0.00;0.00;;;38.50;74.70;42.80;101491.00;;;;5025996;28;20202;-72
2023/07/08 09:47:33;;;;;;;0.68;0.68;;;38.40;73.00;43.40;101463.00;;;;5015128;28;20177;-71
2023/07/08 09:50:19;;;;;;;0.55;0.55;;;39.10;72.90;44.00;101485.00;;;;5022829;28;20181;-69
2023/07/08 09:53:13;;;;;;;0.70;0.70;;;39.10;72.90;41.70;101495.00;;;;5038363;28;20215;-69
2023/07/08 09:55:58;;;;;;;0.20;0.20;;;39.30;72.80;43.80;101494.00;;;;5025307;28;20182;-72
2023/07/08 09:58:31;;;;;;;0.03;0.03;;;38.90;76.30;43.60;101499.00;;;;5033721;28;20269;-72
2023/07/08 10:01:30;;;;;;;2.40;1.35;;;39.40;73.80;35.80;101530.00;;;;5035249;28;20706;-71
2023/07/08 10:04:17;;;;;;;0.30;0.30;;;35.70;73.50;37.00;101515.00;;;;5037239;28;20201;-71
2023/07/08 10:07:21;;;;;;;0.20;0.20;;;34.20;72.40;40.00;101509.00;;;;5021852;28;20276;-70
2023/07/08 10:10:01;;;;;;;0.10;0.10;;;35.40;72.90;40.30;101475.00;;;;5048995;28;20183;-70
2023/07/08 10:12:36;;;;;;;0.00;0.00;;;36.50;72.10;41.20;101508.00;;;;5050617;28;20250;-70
2023/07/08 10:15:58;;;;;;;0.10;0.10;;;37.10;73.90;42.20;101500.00;;;;5046623;28;20182;-70
2023/07/08 10:19:17;;;;;;;0.38;0.38;;;37.70;73.40;42.10;101506.00;;;;5039553;28;20193;-70
2023/07/08 10:34:13;;;;;;;0.10;0.10;;;37.40;72.10;42.40;101508.00;;;;5110107;27;20565;-72
2023/07/08 10:37:01;;;;;;;0.00;0.00;;;38.50;71.10;42.40;101487.00;;;;5086921;28;20192;-72
2023/07/08 10:39:50;;;;;;;1.75;1.65;;;38.50;73.20;43.10;101504.00;;;;5090419;28;20175;-72
2023/07/08 10:42:47;;;;;;;1.25;0.40;;;39.10;72.20;44.40;101493.00;;;;5097172;28;20211;-69
2023/07/08 10:46:10;;;;;;;0.00;0.00;;;39.80;71.50;44.00;101493.00;;;;5079999;28;20286;-69
2023/07/08 10:48:50;;;;;;;1.77;1.27;;;40.00;71.50;42.10;101499.00;;;;5076290;28;20246;-71
2023/07/08 10:51:57;;;;;;;0.73;0.68;;;38.70;70.40;42.20;101491.00;;;;5089379;28;20211;-72
2023/07/08 10:54:44;;;;;;;0.08;0.08;;;38.80;70.20;40.40;101507.00;;;;5090569;28;20189;-72
2023/07/08 10:58:01;;;;;;;2.05;0.77;;;37.70;69.20;40.80;101502.00;;;;5090461;28;20169;-72
2023/07/08 11:01:07;;;;;;;0.20;0.20;;;37.20;69.20;40.90;101486.00;;;;5075274;28;20227;-71
2023/07/08 11:04:11;;;;;;;0.10;0.10;;;37.70;71.10;42.50;101480.00;;;;5090398;28;20196;-71
2023/07/08 11:06:58;;;;;;;0.00;0.00;;;37.80;71.20;42.00;101475.00;;;;5090097;28;20636;-72
2023/07/08 11:10:17;;;;;;;0.00;0.00;;;38.40;71.50;41.30;101498.00;;;;5089068;28;20638;-71
2023/07/08 11:13:09;;;;;;;0.63;0.63;;;37.20;74.20;40.60;101501.00;;;;5085319;28;20625;-72
2023/07/08 11:16:04;;;;;;;0.00;0.00;;;37.60;72.90;42.40;101498.00;;;;5085903;28;20183;-71
2023/07/08 11:18:54;;;;;;;0.20;0.20;;;37.90;71.40;43.00;101490.00;;;;5082363;28;20600;-71
2023/07/08 11:22:09;;;;;;;1.58;0.95;;;39.00;70.00;41.30;101488.00;;;;5089698;28;20184;-71
2023/07/08 11:25:00;;;;;;;0.10;0.10;;;38.20;69.70;42.10;101494.00;;;;5087194;28;20196;-71
2023/07/08 11:27:46;;;;;;;0.00;0.00;;;38.30;70.60;43.30;101488.00;;;;5088283;28;20185;-72
2023/07/08 11:30:17;;;;;;;0.30;0.30;;;39.40;70.50;43.40;101489.00;;;;5088414;28;20189;-69
2023/07/08 11:32:59;;;;;;;0.20;0.20;;;39.90;68.00;42.60;101487.00;;;;5087990;28;20311;-69
2023/07/08 11:39:00;;;;;;;0.32;0.32;;;39.70;64.70;40.70;101498.00;;;;5088816;28;20386;-72
2023/07/08 11:41:35;;;;;;;0.32;0.22;;;37.50;68.80;42.30;101492.00;;;;5088115;28;20189;-72
2023/07/08 11:44:26;;;;;;;1.55;0.98;;;38.10;69.10;42.50;101486.00;;;;5080009;28;20275;-72
2023/07/08 11:47:22;;;;;;;0.60;0.50;;;38.70;66.40;40.10;101494.00;;;;5072402;28;20552;-72
2023/07/08 11:50:19;;;;;;;0.35;0.30;;;38.30;66.50;39.60;101501.00;;;;5074534;28;20539;-71
2023/07/08 11:53:06;;;;;;;0.75;0.75;;;36.90;68.00;40.00;101495.00;;;;5074609;28;20194;-72
2023/07/08 11:56:00;;;;;;;0.25;0.25;;;36.50;68.10;39.80;101497.00;;;;5069235;28;20196;-71
2023/07/08 11:58:29;;;;;;;1.67;1.30;;;35.80;69.00;40.10;101468.00;;;;5004083;28;20203;-71
2023/07/08 12:01:30;;;;;;;0.25;0.25;;;35.90;68.60;40.10;101494.00;;;;4996613;28;20793;-72
2023/07/08 12:04:35;;;;;;;0.10;0.10;;;36.20;66.70;41.00;101482.00;;;;5054612;28;20535;-72
2023/07/08 12:07:53;;;;;;;0.25;0.25;;;36.40;66.00;40.20;101483.00;;;;5064556;28;20173;-72
2023/07/08 12:11:05;;;;;;;0.10;0.10;;;36.40;68.10;39.90;101448.00;;;;5070836;28;20182;-71
2023/07/08 12:13:50;;;;;;;0.20;0.20;;;36.10;69.90;41.00;101472.00;;;;5044693;28;20193;-72
2023/07/08 12:16:38;;;;;;;2.83;1.30;;;36.40;70.30;39.40;101479.00;;;;5072119;28;20272;-72
2023/07/08 12:19:15;;;;;;;0.55;0.55;;;36.10;70.60;39.50;101434.00;;;;5072922;28;20268;-72
2023/07/08 12:22:30;;;;;;;2.15;1.95;;;35.70;69.80;37.70;101473.00;;;;5058574;28;20183;-71
2023/07/08 12:25:05;;;;;;;2.17;1.45;;;34.80;70.90;37.90;101469.00;;;;5069775;28;20185;-72
2023/07/08 12:27:43;;;;;;;0.68;0.68;;;34.30;69.70;38.30;101473.00;;;;5073947;28;20192;-71
2023/07/08 12:30:32;;;;;;;2.28;1.33;;;34.40;69.10;37.80;101475.00;;;;5057232;28;20181;-71
2023/07/08 12:33:33;;;;;;;0.73;0.65;;;34.20;69.30;38.20;101484.00;;;;5073327;28;20300;-72
2023/07/08 12:36:40;;;;;;;3.40;0.85;;;34.20;70.30;38.50;101482.00;;;;5073908;28;20180;-72
2023/07/08 12:39:16;;;;;;;0.85;0.40;;;34.60;69.20;38.70;101464.00;;;;5066799;28;20592;-72
2023/07/08 12:42:09;;;;;;;3.15;0.80;;;34.90;69.80;38.30;101446.00;;;;5058216;28;20182;-71
2023/07/08 12:45:13;;;;;;;0.43;0.43;;;34.90;69.10;39.00;101456.00;;;;5071042;28;20185;-72
2023/07/08 12:47:49;;;;;;;1.65;0.50;;;35.30;69.70;37.20;101453.00;;;;5056780;28;20181;-72
2023/07/08 12:50:34;;;;;;;10.52;2.22;;;34.60;69.80;38.60;101475.00;;;;5075169;28;20189;-71
2023/07/08 12:53:21;;;;;;;1.35;1.25;;;34.40;71.10;37.90;101481.00;;;;5071284;28;20231;-71
2023/07/08 12:56:13;;;;;;;1.35;1.35;;;34.40;70.00;37.90;101484.00;;;;5072243;28;20181;-71
2023/07/08 12:59:20;;;;;;;0.25;0.25;;;34.20;70.00;39.20;101478.00;;;;5067962;28;20178;-72
2023/07/08 13:02:12;;;;;;;1.10;1.10;;;34.80;71.10;39.20;101479.00;;;;5084146;28;20201;-72
2023/07/08 13:05:00;;;;;;;0.25;0.25;;;35.00;70.70;39.50;101487.00;;;;5073172;28;20189;-72
2023/07/08 13:07:38;;;;;;;0.10;0.10;;;35.10;69.60;40.50;101475.00;;;;5069352;28;20239;-72
2023/07/08 13:10:26;;;;;;;0.20;0.20;;;35.60;70.00;39.50;101483.00;;;;5073079;28;20177;-72
2023/07/08 13:13:15;;;;;;;1.38;0.73;;;35.50;69.70;39.80;101476.00;;;;5072977;28;20213;-72
2023/07/08 13:16:06;;;;;;;1.08;0.55;;;35.50;71.40;39.20;101484.00;;;;5073143;28;20162;-72
2023/07/08 13:18:35;;;;;;;0.10;0.10;;;35.20;70.20;38.30;101495.00;;;;5072619;28;20234;-71
2023/07/08 13:21:18;;;;;;;0.20;0.20;;;34.90;70.60;38.80;101492.00;;;;5074203;28;20189;-71
2023/07/08 13:24:21;;;;;;;0.10;0.10;;;34.80;71.10;38.70;101479.00;;;;5072794;28;20180;-71
2023/07/08 13:27:23;;;;;;;0.10;0.10;;;34.80;71.30;39.70;101485.00;;;;5062370;28;20664;-71
2023/07/08 13:30:18;;;;;;;0.20;0.20;;;34.90;72.50;39.50;101485.00;;;;5072678;28;20604;-72
2023/07/08 13:33:04;;;;;;;0.10;0.10;;;35.20;71.50;39.30;101490.00;;;;5072658;28;20220;-71
2023/07/08 13:36:28;;;;;;;0.93;0.93;;;35.00;71.90;39.00;101485.00;;;;5072541;28;20276;-71
2023/07/08 13:39:28;;;;;;;0.10;0.10;;;34.90;72.10;38.10;101495.00;;;;5055983;28;20185;-71
2023/07/08 13:42:14;;;;;;;2.55;0.75;;;34.60;72.60;37.70;101493.00;;;;5068051;28;20177;-71
2023/07/08 13:45:36;;;;;;;1.10;0.73;;;34.30;72.80;38.60;101497.00;;;;5072098;28;20185;-71
2023/07/08 13:48:48;;;;;;;0.30;0.30;;;34.20;72.60;38.60;101500.00;;;;5066602;28;20558;-71
2023/07/08 13:51:45;;;;;;;1.65;1.55;;;34.30;73.30;38.30;101501.00;;;;5071201;28;20611;-71
2023/07/08 13:54:48;;;;;;;0.93;0.82;;;34.40;73.30;38.40;101495.00;;;;5072351;28;20177;-71
2023/07/08 13:57:37;;;;;;;0.30;0.30;;;34.40;73.30;39.00;101499.00;;;;5081219;28;20189;-71
2023/07/08 14:00:24;;;;;;;0.10;0.10;;;34.70;73.70;38.80;101499.00;;;;5072472;28;20205;-71
2023/07/08 14:03:13;;;;;;;0.30;0.30;;;34.50;74.10;38.70;101512.00;;;;5072326;28;20272;-71
2023/07/08 14:06:16;;;;;;;0.82;0.82;;;34.40;74.80;37.00;101515.00;;;;5072005;28;20185;-71
2023/07/08 14:09:54;;;;;;;1.25;1.20;;;34.00;77.30;36.50;101551.00;;;;5064111;28;20181;-69
2023/07/08 14:12:54;;;;;;;1.55;1.27;;;33.30;80.00;36.10;101562.00;;;;5073120;28;20212;-69
2023/07/08 14:15:41;;;;;;;1.20;1.10;;;32.90;81.60;36.10;101585.00;;;;5072125;28;20605;-71
2023/07/08 14:18:44;;;;;;;0.93;0.80;;;32.50;83.30;34.60;101597.00;;;;5061410;28;20196;-71
2023/07/08 14:21:45;;;;;;;3.22;1.95;;;32.00;85.00;34.10;101596.00;;;;5059979;28;20252;-71
2023/07/08 14:24:46;;;;;;;0.73;0.73;;;31.30;86.90;34.80;101581.00;;;;5055251;28;20262;-71
2023/07/08 14:27:47;;;;;;;1.52;1.42;;;31.00;87.60;33.80;101596.00;;;;5055126;28;20639;-71
2023/07/08 14:30:50;;;;;;;1.75;1.65;;;30.80;87.10;34.50;101594.00;;;;5072053;28;20272;-71
2023/07/08 14:34:05;;;;;;;2.45;1.13;;;30.70;87.90;34.00;101592.00;;;;5066918;28;20221;-71
2023/07/08 14:37:12;;;;;;;2.45;2.25;;;30.70;89.00;33.90;101551.00;;;;5084137;28;20197;-71
2023/07/08 14:40:20;;;;;;;0.20;0.20;;;30.60;88.70;33.90;101580.00;;;;5071354;28;20200;-72
2023/07/08 14:43:13;;;;;;;0.25;0.25;;;30.50;89.80;34.80;101584.00;;;;5071574;28;20605;-71
2023/07/08 14:46:25;;;;;;;0.10;0.10;;;30.80;89.70;35.60;101574.00;;;;5071609;28;20231;-71
2023/07/08 14:49:19;;;;;;;0.90;0.55;;;31.20;89.20;35.10;101573.00;;;;5054844;28;20189;-71
2023/07/08 14:52:20;;;;;;;14.02;1.58;;;31.10;91.10;33.60;101578.00;;;;5070163;28;20205;-71
2023/07/08 14:55:24;;;;;;;0.10;0.10;;;30.30;90.50;34.30;101568.00;;;;5063020;28;20217;-71
2023/07/08 14:58:20;;;;;;;1.85;1.10;;;30.00;91.50;34.20;101560.00;;;;5067955;28;20671;-71
2023/07/08 15:01:17;;;;;;;1.15;0.80;;;30.20;89.80;35.00;101559.00;;;;5088285;28;20284;-71
2023/07/08 15:04:18;;;;;;;0.47;0.47;;;30.70;88.90;35.50;101549.00;;;;5071350;28;20189;-72
2023/07/08 15:07:22;;;;;;;1.15;1.02;;;31.20;89.50;35.20;101540.00;;;;5070993;28;20578;-71
2023/07/08 15:10:25;;;;;;;0.20;0.20;;;31.30;88.80;36.00;101530.00;;;;5080707;28;20269;-71
2023/07/08 15:13:18;;;;;;;1.02;0.73;;;31.70;89.40;34.80;101525.00;;;;5071316;28;20270;-71
2023/07/08 15:16:25;;;;;;;0.52;0.52;;;31.60;90.20;35.10;101528.00;;;;5068084;28;20240;-71
2023/07/08 15:19:24;;;;;;;0.75;0.75;;;31.60;89.80;34.70;101543.00;;;;5062379;28;20677;-72
2023/07/08 15:22:27;;;;;;;0.50;0.50;;;31.40;90.50;34.90;101535.00;;;;5091232;28;20670;-71
2023/07/08 15:25:15;;;;;;;0.55;0.55;;;31.30;90.80;34.80;101541.00;;;;5075221;28;20183;-71
2023/07/08 15:28:05;;;;;;;0.98;0.93;;;31.30;91.00;35.20;101506.00;;;;5075030;28;20173;-71
2023/07/08 15:31:03;;;;;;;0.65;0.65;;;31.40;91.10;35.70;101541.00;;;;5076239;28;20545;-71
2023/07/08 15:34:07;;;;;;;0.90;0.60;;;31.60;91.20;36.20;101540.00;;;;5058113;28;20213;-72
2023/07/08 15:37:11;;;;;;;0.38;0.38;;;32.00;91.30;35.30;101541.00;;;;5070400;28;20181;-71
2023/07/08 15:40:14;;;;;;;0.57;0.57;;;32.10;92.00;35.30;101541.00;;;;5067450;28;20192;-72
2023/07/08 15:43:02;;;;;;;0.82;0.82;;;31.80;92.50;34.90;101546.00;;;;5074448;28;20185;-71
2023/07/08 15:45:53;;;;;;;1.65;0.85;;;31.70;93.40;34.80;101523.00;;;;5074873;28;20606;-71
2023/07/08 15:48:41;;;;;;;0.47;0.47;;;31.50;94.00;35.30;101548.00;;;;5064174;28;20193;-71
2023/07/08 15:51:29;;;;;;;5.80;2.45;;;31.60;94.30;35.10;101539.00;;;;5064796;28;20186;-71
2023/07/08 15:54:16;;;;;;;0.70;0.70;;;31.50;94.30;35.20;101551.00;;;;5073815;28;20192;-72
2023/07/08 15:57:10;;;;;;;1.45;0.80;;;31.70;94.40;35.40;101514.00;;;;5104531;28;20238;-71
2023/07/08 15:59:53;;;;;;;0.77;0.77;;;31.70;94.50;35.50;101529.00;;;;5074288;28;20548;-71
2023/07/08 16:02:45;;;;;;;0.10;0.10;;;31.80;94.60;35.70;101523.00;;;;5057591;28;20188;-71
2023/07/08 16:05:37;;;;;;;1.13;0.98;;;31.90;94.90;35.30;101547.00;;;;5058931;28;20232;-71
2023/07/08 16:08:21;;;;;;;0.10;0.10;;;31.80;95.50;35.20;101546.00;;;;5074080;28;20226;-71
2023/07/08 16:11:30;;;;;;;0.25;0.20;;;31.80;95.60;35.20;101554.00;;;;5074522;28;20181;-71
2023/07/08 16:14:10;;;;;;;0.57;0.45;;;31.70;96.00;35.40;101530.00;;;;5064901;28;20236;-71
2023/07/08 16:17:01;;;;;;;1.17;1.15;;;31.80;96.30;35.20;101542.00;;;;5072511;28;20586;-72
2023/07/08 16:19:45;;;;;;;0.82;0.70;;;31.70;96.50;35.10;101512.00;;;;5071696;28;20189;-73
2023/07/08 16:22:28;;;;;;;0.57;0.57;;;31.70;96.60;35.40;101550.00;;;;5102564;28;20628;-71
2023/07/08 16:25:33;;;;;;;0.73;0.73;;;31.70;96.90;35.90;101539.00;;;;5074156;28;20220;-71
2023/07/08 16:28:22;;;;;;;0.32;0.32;;;31.80;97.00;35.70;101530.00;;;;5068536;28;20238;-72
2023/07/08 16:31:14;;;;;;;0.75;0.75;;;32.00;96.90;35.90;101527.00;;;;5074811;28;20235;-72
2023/07/08 16:34:00;;;;;;;1.58;0.70;;;32.10;97.00;36.20;101520.00;;;;5070280;28;20213;-72
2023/07/08 16:36:38;;;;;;;0.40;0.35;;;32.20;97.20;36.20;101523.00;;;;5067037;28;20197;-72
2023/07/08 16:39:21;;;;;;;0.75;0.75;;;32.20;97.00;35.80;101521.00;;;;5066230;28;20178;-72
2023/07/08 16:42:14;;;;;;;0.55;0.55;;;32.10;96.70;35.20;101530.00;;;;5087272;28;20644;-72
2023/07/08 16:44:57;;;;;;;1.10;1.10;;;31.90;97.60;36.00;101521.00;;;;5071918;28;20201;-72
2023/07/08 16:47:43;;;;;;;0.20;0.20;;;31.90;97.70;36.00;101522.00;;;;5064724;28;20186;-72
2023/07/08 16:50:28;;;;;;;0.17;0.17;;;32.10;97.90;36.70;101517.00;;;;5071964;28;20189;-72
2023/07/08 16:53:13;;;;;;;0.63;0.63;;;32.30;97.70;35.60;101528.00;;;;5073281;28;20231;-72
2023/07/08 16:55:47;;;;;;;0.63;0.63;;;32.30;97.40;35.10;101541.00;;;;5073399;28;20315;-72
2023/07/08 16:58:15;;;;;;;0.60;0.60;;;31.90;97.90;35.60;101538.00;;;;5079974;28;20261;-71
2023/07/08 17:01:10;;;;;;;3.30;0.70;;;32.00;97.80;35.50;101527.00;;;;5073330;28;20203;-71
2023/07/08 17:03:56;;;;;;;0.10;0.10;;;31.90;97.40;35.60;101516.00;;;;5099208;28;20659;-71
2023/07/08 17:06:40;;;;;;;0.63;0.60;;;31.80;97.50;35.80;101497.00;;;;5071274;28;20577;-71
2023/07/08 17:09:41;;;;;;;1.27;1.20;;;32.00;97.60;35.60;101523.00;;;;5074337;28;20355;-71
2023/07/08 17:12:24;;;;;;;0.10;0.10;;;32.00;97.30;36.70;101510.00;;;;5069816;28;20574;-71
2023/07/08 17:15:12;;;;;;;0.63;0.63;;;32.20;97.00;35.30;101523.00;;;;5065650;28;20217;-71
2023/07/08 17:17:59;;;;;;;0.10;0.10;;;32.10;96.50;35.40;101518.00;;;;5071224;28;20196;-71
2023/07/08 17:20:52;;;;;;;0.10;0.10;;;31.70;96.40;35.20;101527.00;;;;5073087;28;20181;-71
2023/07/08 17:23:23;;;;;;;0.50;0.50;;;31.70;97.40;35.10;101526.00;;;;5089619;28;20208;-71
2023/07/08 17:26:07;;;;;;;1.30;0.40;;;31.60;97.40;35.60;101529.00;;;;5072751;28;20707;-71
2023/07/08 17:28:55;;;;;;;0.20;0.20;;;31.60;97.60;36.00;101544.00;;;;5065565;28;20231;-71
2023/07/08 17:31:39;;;;;;;0.10;0.10;;;31.80;97.40;36.50;101539.00;;;;5072495;28;20197;-71
2023/07/08 17:34:26;;;;;;;2.10;1.08;;;32.10;97.50;35.50;101536.00;;;;5072649;28;20181;-71
2023/07/08 17:37:10;;;;;;;0.55;0.55;;;32.00;97.10;35.40;101534.00;;;;5065402;28;20737;-70
2023/07/08 17:39:56;;;;;;;0.20;0.20;;;31.70;96.50;35.30;101508.00;;;;5071304;28;20185;-71
2023/07/08 17:42:49;;;;;;;1.02;1.02;;;31.80;96.70;34.80;101549.00;;;;5085658;28;20205;-71
2023/07/08 17:45:33;;;;;;;0.65;0.65;;;31.50;96.80;35.30;101548.00;;;;5060217;28;20177;-71
2023/07/08 17:48:23;;;;;;;1.25;1.20;;;31.60;97.00;34.90;101537.00;;;;5073622;28;20225;-71
2023/07/08 17:51:02;;;;;;;0.65;0.65;;;31.30;97.20;35.20;101512.00;;;;5055812;28;20192;-71
2023/07/08 17:53:46;;;;;;;0.10;0.10;;;31.30;97.40;35.20;101554.00;;;;5055292;28;20258;-71
2023/07/08 17:57:00;;;;;;;0.20;0.20;;;31.40;97.40;35.80;101559.00;;;;5072274;28;20252;-70
2023/07/08 17:59:43;;;;;;;0.10;0.10;;;31.50;97.40;36.30;101536.00;;;;5063877;28;20193;-71
2023/07/08 18:02:29;;;;;;;0.10;0.10;;;31.80;97.30;35.80;101541.00;;;;5072379;28;20219;-70
2023/07/08 18:05:18;;;;;;;0.10;0.10;;;31.70;96.80;35.90;101545.00;;;;5069075;28;20197;-71
2023/07/08 18:08:09;;;;;;;0.20;0.20;;;31.60;96.90;34.70;101548.00;;;;5055262;28;20209;-70
2023/07/08 18:10:53;;;;;;;0.52;0.25;;;31.30;97.20;35.10;101558.00;;;;5088622;28;20553;-70
2023/07/08 18:13:37;;;;;;;0.35;0.20;;;31.20;97.40;34.80;101547.00;;;;5072068;28;20316;-70
2023/07/08 18:16:27;;;;;;;0.10;0.10;;;31.10;97.30;35.20;101550.00;;;;5071970;28;20221;-70
2023/07/08 18:19:10;;;;;;;0.10;0.10;;;31.00;97.30;35.80;101551.00;;;;5065518;28;20711;-71
2023/07/08 18:21:54;;;;;;;0.10;0.10;;;31.20;97.40;36.40;101545.00;;;;5072270;28;20189;-71
2023/07/08 18:24:45;;;;;;;0.10;0.10;;;31.40;97.30;36.00;101546.00;;;;5051991;28;20201;-71
2023/07/08 18:27:24;;;;;;;0.10;0.10;;;31.40;96.70;36.30;101554.00;;;;5072096;28;20178;-71
2023/07/08 18:30:14;;;;;;;0.52;0.52;;;31.30;97.50;34.50;101579.00;;;;5071888;28;20189;-70
2023/07/08 18:33:00;;;;;;;0.30;0.30;;;31.00;97.80;34.20;101592.00;;;;5050747;28;20213;-71
2023/07/08 18:35:46;;;;;;;0.10;0.10;;;30.60;98.50;34.00;101597.00;;;;5068413;28;20198;-71
2023/07/08 18:38:29;;;;;;;0.73;0.73;;;30.50;98.90;34.10;101606.00;;;;5088547;28;20279;-71
2023/07/08 18:41:19;;;;;;;3.10;0.77;;;30.40;99.20;34.10;101598.00;;;;5071716;28;20185;-71
2023/07/08 18:44:14;;;;;;;0.10;0.10;;;30.30;99.30;34.40;101596.00;;;;5071469;28;20197;-70
2023/07/08 18:46:44;;;;;;;0.20;0.20;;;30.40;99.20;33.90;101592.00;;;;5065574;28;20175;-70
2023/07/08 18:49:31;;;;;;;0.35;0.35;;;30.30;99.20;33.20;101573.00;;;;5071615;28;20184;-70
2023/07/08 18:52:17;;;;;;;0.43;0.20;;;30.10;99.20;34.20;101580.00;;;;5068121;28;20263;-70
2023/07/08 18:54:45;;;;;;;0.10;0.10;;;30.20;99.30;34.20;101579.00;;;;5093483;28;20646;-70
2023/07/08 18:57:29;;;;;;;0.10;0.10;;;30.20;99.30;33.50;101598.00;;;;5092388;28;20209;-70
2023/07/08 18:59:57;;;;;;;0.10;0.10;;;30.00;99.90;33.80;101597.00;;;;5076620;28;20635;-70
2023/07/08 19:02:34;;;;;;;1.00;0.82;;;30.00;99.90;33.80;101595.00;;;;5075403;28;20185;-70
2023/07/08 19:05:11;;;;;;;0.10;0.10;;;30.00;99.90;34.10;101592.00;;;;5075863;28;20188;-70
2023/07/08 19:07:40;;;;;;;0.10;0.10;;;30.10;99.90;33.90;101593.00;;;;5075509;28;20276;-70
2023/07/08 19:10:17;;;;;;;0.10;0.10;;;30.20;99.90;33.90;101602.00;;;;5075386;28;20182;-71
2023/07/08 19:13:00;;;;;;;0.10;0.10;;;30.10;99.90;34.00;101592.00;;;;5075258;28;20232;-71
2023/07/08 19:15:44;;;;;;;0.10;0.10;;;30.00;99.90;33.90;101584.00;;;;5075468;28;20194;-71
2023/07/08 19:18:20;;;;;;;0.90;0.52;;;30.00;99.90;34.20;101593.00;;;;5081433;28;20244;-70
2023/07/08 19:20:50;;;;;;;0.10;0.10;;;30.10;99.90;34.00;101549.00;;;;5071912;28;20177;-71
2023/07/08 19:23:40;;;;;;;0.10;0.10;;;30.00;99.90;33.80;101589.00;;;;5075361;28;20193;-71
2023/07/08 19:26:34;;;;;;;0.52;0.52;;;29.90;99.90;34.30;101585.00;;;;5051734;28;20189;-71
2023/07/08 19:29:17;;;;;;;0.10;0.10;;;30.00;99.90;34.00;101553.00;;;;5065383;28;20181;-70
2023/07/08 19:32:00;;;;;;;0.10;0.10;;;30.00;99.90;33.90;101582.00;;;;5074985;28;20217;-70
2023/07/08 19:34:46;;;;;;;0.10;0.10;;;29.90;99.90;34.00;101566.00;;;;5076446;28;20190;-71
2023/07/08 19:37:35;;;;;;;0.10;0.10;;;29.90;99.90;34.00;101578.00;;;;5057951;28;20181;-70
2023/07/08 19:40:22;;;;;;;0.10;0.10;;;29.80;99.90;34.50;101582.00;;;;5054520;28;20526;-70
2023/07/08 19:42:54;;;;;;;0.10;0.10;;;29.80;99.90;33.90;101590.00;;;;5072999;28;20189;-71
2023/07/08 19:45:43;;;;;;;0.10;0.10;;;29.80;99.90;33.80;101596.00;;;;5058045;28;20197;-71
2023/07/08 19:48:47;;;;;;;0.10;0.10;;;29.70;99.90;34.70;101590.00;;;;5073541;28;20185;-71